London Corbin Airport Magee Field
KLOZ : now visible

Airfield :











YOU CAN JOIN US ON...

 
LOGIN :

Register | Disclaimer

   EN    FR    IT 

 









Legend :    VFR   Marginal VFR   IFR   Intensive IFR   Very Intensive IFR
Visi :
Ceiling :
>= 8 km
>= 3000ft
5 to 8 km
1000 to 3000 ft
1500m to 5 km
500 to 1000 ft
800 to 1500m
200 to 500 ft
< 800m
< 200 ft
Symbols :   Thunderstorms  Fog  Heavy snow  Heavy precipitations  Wind > 20 kt






- Airport Elevation : 1212 ft


KLOZ - London Corbin Magee Field

CURRENT METAR :
  • 301553Z AUTO 32005KT 10SM BKN022 OVC027 27/22 A3005 RMK AO2 SLP160 T02670222

EXPIRED METARs :
  • 301521Z AUTO 33005KT 10SM BKN022 27/22 A3004 RMK AO2 T02670217
  • 301453Z AUTO 36003KT 10SM FEW015 26/22 A3003 RMK AO2 SLP155 T02610217 53002
  • 301353Z AUTO 23003KT 10SM SCT009 24/21 A3003 RMK AO2 SLP154 T02390211
  • 301318Z AUTO 27004KT 10SM FEW008 23/21 A3003 RMK AO2 T02330211

TAF KLOZ
Valid from the 30 at 15:00 until the 31 at 12:00 UTC


301451Z 3015/3112 VRB04KT P6SM SCT009
FM301800 33006KT P6SM SCT025
FM302300 36006KT P6SM FEW250
KZID FIR / North America



MET'MAP, your aeronautical weather chart ! - Copyright ORBIFLY December 2007 - Disclaimer

ORBIFLY MET'MAP TEAM :

Programming & Development : Alexandra Zaïnal
Concept & original design : Baudouin d'Aumeries
Assistance for programming : Marc-Olivier Méhu
Technical & hardware support : Manuel Goepfert

Contact : metmap@orbifly.com




SOURCES & CREDITS :

   NOAA       Earth
Advisory